sensor_id;sensor_type;location;lat;lon;timestamp;temperature;humidity
70706;DHT22;59320;52.316;10.870;2023-07-13T00:01:05;18.90;91.10
70706;DHT22;59320;52.316;10.870;2023-07-13T00:03:32;18.90;91.30
70706;DHT22;59320;52.316;10.870;2023-07-13T00:06:01;18.90;91.60
70706;DHT22;59320;52.316;10.870;2023-07-13T00:08:30;18.80;91.80
70706;DHT22;59320;52.316;10.870;2023-07-13T00:10:59;18.90;92.00
70706;DHT22;59320;52.316;10.870;2023-07-13T00:13:27;18.80;92.00
70706;DHT22;59320;52.316;10.870;2023-07-13T00:15:55;18.80;92.00
70706;DHT22;59320;52.316;10.870;2023-07-13T00:18:22;18.70;92.10
70706;DHT22;59320;52.316;10.870;2023-07-13T00:20:49;18.60;92.40
70706;DHT22;59320;52.316;10.870;2023-07-13T00:23:17;18.40;92.60
70706;DHT22;59320;52.316;10.870;2023-07-13T00:25:44;18.30;92.70
70706;DHT22;59320;52.316;10.870;2023-07-13T00:28:12;18.20;92.60
70706;DHT22;59320;52.316;10.870;2023-07-13T00:30:40;18.20;92.50
70706;DHT22;59320;52.316;10.870;2023-07-13T00:33:07;18.30;92.50
70706;DHT22;59320;52.316;10.870;2023-07-13T00:35:35;18.40;92.50
70706;DHT22;59320;52.316;10.870;2023-07-13T00:38:03;18.40;92.30
70706;DHT22;59320;52.316;10.870;2023-07-13T00:40:30;18.40;92.40
70706;DHT22;59320;52.316;10.870;2023-07-13T00:42:59;18.30;92.30
70706;DHT22;59320;52.316;10.870;2023-07-13T00:48:52;18.00;93.10
70706;DHT22;59320;52.316;10.870;2023-07-13T00:51:26;17.80;93.40
70706;DHT22;59320;52.316;10.870;2023-07-13T00:53:57;17.70;93.40
70706;DHT22;59320;52.316;10.870;2023-07-13T00:56:25;17.70;93.60
70706;DHT22;59320;52.316;10.870;2023-07-13T00:58:53;17.80;93.50
70706;DHT22;59320;52.316;10.870;2023-07-13T01:05:37;17.90;93.70
70706;DHT22;59320;52.316;10.870;2023-07-13T01:08:08;17.80;93.50
70706;DHT22;59320;52.316;10.870;2023-07-13T01:10:40;17.70;93.80
70706;DHT22;59320;52.316;10.870;2023-07-13T01:13:11;17.60;93.80
70706;DHT22;59320;52.316;10.870;2023-07-13T01:15:40;17.60;93.90
70706;DHT22;59320;52.316;10.870;2023-07-13T01:18:10;17.60;93.90
70706;DHT22;59320;52.316;10.870;2023-07-13T01:20:39;17.60;94.10
70706;DHT22;59320;52.316;10.870;2023-07-13T01:23:10;17.60;94.00
70706;DHT22;59320;52.316;10.870;2023-07-13T01:25:38;17.70;93.90
70706;DHT22;59320;52.316;10.870;2023-07-13T01:28:07;17.70;93.80
70706;DHT22;59320;52.316;10.870;2023-07-13T01:30:35;17.80;93.70
70706;DHT22;59320;52.316;10.870;2023-07-13T01:33:03;17.80;93.70
70706;DHT22;59320;52.316;10.870;2023-07-13T01:35:30;17.90;93.70
70706;DHT22;59320;52.316;10.870;2023-07-13T01:37:57;17.80;93.70
70706;DHT22;59320;52.316;10.870;2023-07-13T01:40:28;17.80;93.80
70706;DHT22;59320;52.316;10.870;2023-07-13T01:42:58;17.80;93.90
70706;DHT22;59320;52.316;10.870;2023-07-13T01:45:25;17.80;93.90
70706;DHT22;59320;52.316;10.870;2023-07-13T01:47:52;17.80;93.90
70706;DHT22;59320;52.316;10.870;2023-07-13T01:50:19;17.90;93.70
70706;DHT22;59320;52.316;10.870;2023-07-13T01:52:46;18.00;93.60
70706;DHT22;59320;52.316;10.870;2023-07-13T01:55:13;18.00;93.60
70706;DHT22;59320;52.316;10.870;2023-07-13T01:57:42;18.00;93.60
70706;DHT22;59320;52.316;10.870;2023-07-13T02:00:10;18.00;93.70
70706;DHT22;59320;52.316;10.870;2023-07-13T02:02:46;17.90;93.80
70706;DHT22;59320;52.316;10.870;2023-07-13T02:05:14;17.90;93.90
70706;DHT22;59320;52.316;10.870;2023-07-13T02:07:41;17.80;93.90
70706;DHT22;59320;52.316;10.870;2023-07-13T02:10:10;17.80;94.10
70706;DHT22;59320;52.316;10.870;2023-07-13T02:12:37;17.70;94.30
70706;DHT22;59320;52.316;10.870;2023-07-13T02:15:07;17.60;94.50
70706;DHT22;59320;52.316;10.870;2023-07-13T02:17:34;17.60;94.60
70706;DHT22;59320;52.316;10.870;2023-07-13T02:20:02;17.60;94.80
70706;DHT22;59320;52.316;10.870;2023-07-13T02:22:30;17.50;94.90
70706;DHT22;59320;52.316;10.870;2023-07-13T02:24:57;17.50;95.00
70706;DHT22;59320;52.316;10.870;2023-07-13T02:27:25;17.50;95.00
70706;DHT22;59320;52.316;10.870;2023-07-13T02:29:52;17.40;95.10
70706;DHT22;59320;52.316;10.870;2023-07-13T02:32:22;17.40;95.20
70706;DHT22;59320;52.316;10.870;2023-07-13T02:34:51;17.40;95.20
70706;DHT22;59320;52.316;10.870;2023-07-13T02:37:19;17.50;95.60
70706;DHT22;59320;52.316;10.870;2023-07-13T02:39:47;17.50;95.30
70706;DHT22;59320;52.316;10.870;2023-07-13T02:42:14;17.60;95.10
70706;DHT22;59320;52.316;10.870;2023-07-13T02:44:42;17.70;94.90
70706;DHT22;59320;52.316;10.870;2023-07-13T02:47:09;17.80;94.90
70706;DHT22;59320;52.316;10.870;2023-07-13T02:49:38;17.80;94.80
70706;DHT22;59320;52.316;10.870;2023-07-13T02:52:05;17.90;94.80
70706;DHT22;59320;52.316;10.870;2023-07-13T02:54:32;17.90;94.70
70706;DHT22;59320;52.316;10.870;2023-07-13T02:56:59;18.00;94.40
70706;DHT22;59320;52.316;10.870;2023-07-13T02:59:26;18.00;94.30
70706;DHT22;59320;52.316;10.870;2023-07-13T03:01:53;17.90;94.40
70706;DHT22;59320;52.316;10.870;2023-07-13T03:04:20;17.90;94.60
70706;DHT22;59320;52.316;10.870;2023-07-13T03:06:49;17.80;94.70
70706;DHT22;59320;52.316;10.870;2023-07-13T03:09:17;17.80;94.90
70706;DHT22;59320;52.316;10.870;2023-07-13T03:11:52;17.70;95.00
70706;DHT22;59320;52.316;10.870;2023-07-13T03:14:25;17.60;95.30
70706;DHT22;59320;52.316;10.870;2023-07-13T03:16:52;17.60;95.40
70706;DHT22;59320;52.316;10.870;2023-07-13T03:19:23;17.50;95.40
70706;DHT22;59320;52.316;10.870;2023-07-13T03:21:52;17.60;95.50
70706;DHT22;59320;52.316;10.870;2023-07-13T03:24:19;17.50;95.60
70706;DHT22;59320;52.316;10.870;2023-07-13T03:26:50;17.40;95.70
70706;DHT22;59320;52.316;10.870;2023-07-13T03:29:18;17.40;95.80
70706;DHT22;59320;52.316;10.870;2023-07-13T03:31:45;17.40;95.90
70706;DHT22;59320;52.316;10.870;2023-07-13T03:34:13;17.30;96.00
70706;DHT22;59320;52.316;10.870;2023-07-13T03:36:40;17.30;96.10
70706;DHT22;59320;52.316;10.870;2023-07-13T03:39:11;17.20;96.20
70706;DHT22;59320;52.316;10.870;2023-07-13T03:41:46;17.20;96.30
70706;DHT22;59320;52.316;10.870;2023-07-13T03:44:15;17.20;96.30
70706;DHT22;59320;52.316;10.870;2023-07-13T03:46:42;17.20;96.30
70706;DHT22;59320;52.316;10.870;2023-07-13T03:49:10;17.20;96.30
70706;DHT22;59320;52.316;10.870;2023-07-13T03:51:37;17.30;96.40
70706;DHT22;59320;52.316;10.870;2023-07-13T03:54:05;17.30;96.40
70706;DHT22;59320;52.316;10.870;2023-07-13T03:56:33;17.30;96.40
70706;DHT22;59320;52.316;10.870;2023-07-13T03:59:02;17.30;96.40
70706;DHT22;59320;52.316;10.870;2023-07-13T04:01:30;17.40;96.30
70706;DHT22;59320;52.316;10.870;2023-07-13T04:03:57;17.30;96.30
70706;DHT22;59320;52.316;10.870;2023-07-13T04:06:27;17.40;96.40
70706;DHT22;59320;52.316;10.870;2023-07-13T04:08:56;17.40;96.40
70706;DHT22;59320;52.316;10.870;2023-07-13T04:11:26;17.30;96.50
70706;DHT22;59320;52.316;10.870;2023-07-13T04:13:55;17.30;96.50
70706;DHT22;59320;52.316;10.870;2023-07-13T04:16:23;17.30;96.60
70706;DHT22;59320;52.316;10.870;2023-07-13T04:18:50;17.30;96.60
70706;DHT22;59320;52.316;10.870;2023-07-13T04:21:20;17.40;96.60
70706;DHT22;59320;52.316;10.870;2023-07-13T04:23:47;17.40;96.60
70706;DHT22;59320;52.316;10.870;2023-07-13T04:26:15;17.50;96.50
70706;DHT22;59320;52.316;10.870;2023-07-13T04:28:42;17.60;96.40
70706;DHT22;59320;52.316;10.870;2023-07-13T04:31:10;17.60;96.40
70706;DHT22;59320;52.316;10.870;2023-07-13T04:33:37;17.70;96.30
70706;DHT22;59320;52.316;10.870;2023-07-13T04:36:05;17.80;96.30
70706;DHT22;59320;52.316;10.870;2023-07-13T04:38:35;17.80;96.40
70706;DHT22;59320;52.316;10.870;2023-07-13T04:41:05;17.70;96.50
70706;DHT22;59320;52.316;10.870;2023-07-13T04:43:33;17.60;96.60
70706;DHT22;59320;52.316;10.870;2023-07-13T04:46:03;17.70;96.60
70706;DHT22;59320;52.316;10.870;2023-07-13T04:48:33;17.70;96.70
70706;DHT22;59320;52.316;10.870;2023-07-13T04:51:00;17.70;96.60
70706;DHT22;59320;52.316;10.870;2023-07-13T04:53:28;17.80;96.70
70706;DHT22;59320;52.316;10.870;2023-07-13T04:55:56;17.80;96.70
70706;DHT22;59320;52.316;10.870;2023-07-13T04:58:24;17.80;96.90
70706;DHT22;59320;52.316;10.870;2023-07-13T05:00:51;18.00;96.50
70706;DHT22;59320;52.316;10.870;2023-07-13T05:03:18;18.00;96.40
70706;DHT22;59320;52.316;10.870;2023-07-13T05:05:56;18.10;96.30
70706;DHT22;59320;52.316;10.870;2023-07-13T05:08:23;18.20;96.20
70706;DHT22;59320;52.316;10.870;2023-07-13T05:10:51;18.30;96.00
70706;DHT22;59320;52.316;10.870;2023-07-13T05:13:18;18.40;95.90
70706;DHT22;59320;52.316;10.870;2023-07-13T05:15:45;18.40;95.90
70706;DHT22;59320;52.316;10.870;2023-07-13T05:18:12;18.50;95.70
70706;DHT22;59320;52.316;10.870;2023-07-13T05:20:39;18.60;95.50
70706;DHT22;59320;52.316;10.870;2023-07-13T05:23:08;18.70;95.40
70706;DHT22;59320;52.316;10.870;2023-07-13T05:25:35;18.80;95.40
70706;DHT22;59320;52.316;10.870;2023-07-13T05:28:02;18.90;95.10
70706;DHT22;59320;52.316;10.870;2023-07-13T05:30:29;18.90;94.90
70706;DHT22;59320;52.316;10.870;2023-07-13T05:32:56;19.00;94.80
70706;DHT22;59320;52.316;10.870;2023-07-13T05:35:23;19.10;94.50
70706;DHT22;59320;52.316;10.870;2023-07-13T05:37:50;19.30;94.50
70706;DHT22;59320;52.316;10.870;2023-07-13T05:40:18;19.40;94.40
70706;DHT22;59320;52.316;10.870;2023-07-13T05:42:45;19.60;94.10
70706;DHT22;59320;52.316;10.870;2023-07-13T05:45:12;19.70;93.70
70706;DHT22;59320;52.316;10.870;2023-07-13T05:47:39;19.80;93.30
70706;DHT22;59320;52.316;10.870;2023-07-13T05:50:07;19.90;92.90
70706;DHT22;59320;52.316;10.870;2023-07-13T05:52:34;20.00;92.70
70706;DHT22;59320;52.316;10.870;2023-07-13T05:55:01;20.00;92.20
70706;DHT22;59320;52.316;10.870;2023-07-13T05:57:30;20.00;92.10
70706;DHT22;59320;52.316;10.870;2023-07-13T05:59:57;20.00;92.00
70706;DHT22;59320;52.316;10.870;2023-07-13T06:02:24;20.00;92.00
70706;DHT22;59320;52.316;10.870;2023-07-13T06:04:52;20.00;91.90
70706;DHT22;59320;52.316;10.870;2023-07-13T06:07:19;20.00;91.70
70706;DHT22;59320;52.316;10.870;2023-07-13T06:09:46;20.00;91.70
70706;DHT22;59320;52.316;10.870;2023-07-13T06:12:13;20.10;91.80
70706;DHT22;59320;52.316;10.870;2023-07-13T06:14:41;20.10;91.80
70706;DHT22;59320;52.316;10.870;2023-07-13T06:17:08;20.20;91.60
70706;DHT22;59320;52.316;10.870;2023-07-13T06:19:36;20.20;91.20
70706;DHT22;59320;52.316;10.870;2023-07-13T06:22:04;20.30;91.00
70706;DHT22;59320;52.316;10.870;2023-07-13T06:24:31;20.40;90.90
70706;DHT22;59320;52.316;10.870;2023-07-13T06:26:58;20.50;90.90
70706;DHT22;59320;52.316;10.870;2023-07-13T06:29:25;20.60;90.50
70706;DHT22;59320;52.316;10.870;2023-07-13T06:31:53;20.80;90.20
70706;DHT22;59320;52.316;10.870;2023-07-13T06:34:20;20.90;89.90
70706;DHT22;59320;52.316;10.870;2023-07-13T06:36:47;20.90;89.90
70706;DHT22;59320;52.316;10.870;2023-07-13T06:39:14;21.00;89.20
70706;DHT22;59320;52.316;10.870;2023-07-13T06:41:41;21.20;89.30
70706;DHT22;59320;52.316;10.870;2023-07-13T06:44:13;21.40;88.00
70706;DHT22;59320;52.316;10.870;2023-07-13T06:46:40;21.50;86.70
70706;DHT22;59320;52.316;10.870;2023-07-13T06:49:09;21.70;86.50
70706;DHT22;59320;52.316;10.870;2023-07-13T06:51:36;21.90;86.50
70706;DHT22;59320;52.316;10.870;2023-07-13T06:54:03;21.90;84.60
70706;DHT22;59320;52.316;10.870;2023-07-13T06:56:30;21.90;83.80
70706;DHT22;59320;52.316;10.870;2023-07-13T06:58:57;22.00;84.50
70706;DHT22;59320;52.316;10.870;2023-07-13T07:01:24;22.20;83.80
70706;DHT22;59320;52.316;10.870;2023-07-13T07:03:52;22.30;81.20
70706;DHT22;59320;52.316;10.870;2023-07-13T07:06:21;22.10;81.60
70706;DHT22;59320;52.316;10.870;2023-07-13T07:08:49;22.00;82.10
70706;DHT22;59320;52.316;10.870;2023-07-13T07:11:18;22.10;81.50
70706;DHT22;59320;52.316;10.870;2023-07-13T07:13:45;22.20;81.40
70706;DHT22;59320;52.316;10.870;2023-07-13T07:16:12;22.20;81.40
70706;DHT22;59320;52.316;10.870;2023-07-13T07:18:39;22.40;81.40
70706;DHT22;59320;52.316;10.870;2023-07-13T07:21:06;22.50;81.80
70706;DHT22;59320;52.316;10.870;2023-07-13T07:23:35;22.70;80.70
70706;DHT22;59320;52.316;10.870;2023-07-13T07:26:02;22.60;79.90
70706;DHT22;59320;52.316;10.870;2023-07-13T07:28:29;22.50;81.00
70706;DHT22;59320;52.316;10.870;2023-07-13T07:30:57;22.60;80.70
70706;DHT22;59320;52.316;10.870;2023-07-13T07:33:25;22.80;80.60
70706;DHT22;59320;52.316;10.870;2023-07-13T07:35:52;22.90;79.80
70706;DHT22;59320;52.316;10.870;2023-07-13T07:38:19;22.70;80.00
70706;DHT22;59320;52.316;10.870;2023-07-13T07:40:48;22.60;79.80
70706;DHT22;59320;52.316;10.870;2023-07-13T07:43:15;22.60;80.30
70706;DHT22;59320;52.316;10.870;2023-07-13T07:45:44;22.60;80.60
70706;DHT22;59320;52.316;10.870;2023-07-13T07:48:12;22.50;80.40
70706;DHT22;59320;52.316;10.870;2023-07-13T07:50:39;22.70;80.80
70706;DHT22;59320;52.316;10.870;2023-07-13T07:53:06;22.80;80.70
70706;DHT22;59320;52.316;10.870;2023-07-13T07:55:36;23.00;80.00
70706;DHT22;59320;52.316;10.870;2023-07-13T07:58:04;23.00;79.20
70706;DHT22;59320;52.316;10.870;2023-07-13T08:00:32;23.00;79.00
70706;DHT22;59320;52.316;10.870;2023-07-13T08:02:59;22.90;78.30
70706;DHT22;59320;52.316;10.870;2023-07-13T08:05:26;22.80;78.50
70706;DHT22;59320;52.316;10.870;2023-07-13T08:07:53;23.00;78.70
70706;DHT22;59320;52.316;10.870;2023-07-13T08:10:20;22.90;78.30
70706;DHT22;59320;52.316;10.870;2023-07-13T08:12:48;23.10;77.70
70706;DHT22;59320;52.316;10.870;2023-07-13T08:15:16;23.10;77.70
70706;DHT22;59320;52.316;10.870;2023-07-13T08:17:46;23.10;77.80
70706;DHT22;59320;52.316;10.870;2023-07-13T08:20:14;23.10;77.90
70706;DHT22;59320;52.316;10.870;2023-07-13T08:22:41;23.00;77.30
70706;DHT22;59320;52.316;10.870;2023-07-13T08:25:08;22.90;77.40
70706;DHT22;59320;52.316;10.870;2023-07-13T08:27:35;23.00;77.80
70706;DHT22;59320;52.316;10.870;2023-07-13T08:30:02;23.10;77.40
70706;DHT22;59320;52.316;10.870;2023-07-13T08:32:32;23.20;77.00
70706;DHT22;59320;52.316;10.870;2023-07-13T08:34:59;23.50;76.10
70706;DHT22;59320;52.316;10.870;2023-07-13T08:37:26;23.80;75.30
70706;DHT22;59320;52.316;10.870;2023-07-13T08:39:53;24.00;75.40
70706;DHT22;59320;52.316;10.870;2023-07-13T08:42:31;24.10;74.50
70706;DHT22;59320;52.316;10.870;2023-07-13T08:45:11;24.20;74.50
70706;DHT22;59320;52.316;10.870;2023-07-13T08:47:45;24.10;73.30
70706;DHT22;59320;52.316;10.870;2023-07-13T08:50:15;24.10;72.80
70706;DHT22;59320;52.316;10.870;2023-07-13T08:52:44;24.10;72.20
70706;DHT22;59320;52.316;10.870;2023-07-13T08:55:14;24.10;72.10
70706;DHT22;59320;52.316;10.870;2023-07-13T08:57:43;23.90;72.60
70706;DHT22;59320;52.316;10.870;2023-07-13T09:00:12;23.70;71.60
70706;DHT22;59320;52.316;10.870;2023-07-13T09:02:46;23.40;72.10
70706;DHT22;59320;52.316;10.870;2023-07-13T09:05:18;23.40;72.00
70706;DHT22;59320;52.316;10.870;2023-07-13T09:08:07;23.30;72.30
70706;DHT22;59320;52.316;10.870;2023-07-13T09:10:44;23.30;71.40
70706;DHT22;59320;52.316;10.870;2023-07-13T09:13:24;23.40;71.30
70706;DHT22;59320;52.316;10.870;2023-07-13T09:15:54;23.30;70.60
70706;DHT22;59320;52.316;10.870;2023-07-13T09:18:26;23.40;70.50
70706;DHT22;59320;52.316;10.870;2023-07-13T09:20:57;23.70;70.40
70706;DHT22;59320;52.316;10.870;2023-07-13T09:23:29;23.90;69.70
70706;DHT22;59320;52.316;10.870;2023-07-13T09:26:01;23.90;69.10
70706;DHT22;59320;52.316;10.870;2023-07-13T09:28:33;23.70;68.00
70706;DHT22;59320;52.316;10.870;2023-07-13T09:31:06;23.50;69.20
70706;DHT22;59320;52.316;10.870;2023-07-13T09:33:35;23.30;68.20
70706;DHT22;59320;52.316;10.870;2023-07-13T09:36:17;23.30;69.40
70706;DHT22;59320;52.316;10.870;2023-07-13T09:38:45;23.30;68.30
70706;DHT22;59320;52.316;10.870;2023-07-13T09:41:20;23.20;68.30
70706;DHT22;59320;52.316;10.870;2023-07-13T09:44:07;23.10;69.00
70706;DHT22;59320;52.316;10.870;2023-07-13T09:46:36;23.20;69.30
70706;DHT22;59320;52.316;10.870;2023-07-13T09:49:04;23.30;68.50
70706;DHT22;59320;52.316;10.870;2023-07-13T09:51:31;23.30;69.20
70706;DHT22;59320;52.316;10.870;2023-07-13T09:53:58;23.40;68.20
70706;DHT22;59320;52.316;10.870;2023-07-13T09:56:27;23.50;68.40
70706;DHT22;59320;52.316;10.870;2023-07-13T09:58:56;23.60;67.40
70706;DHT22;59320;52.316;10.870;2023-07-13T10:01:34;23.70;68.20
70706;DHT22;59320;52.316;10.870;2023-07-13T10:04:03;23.80;68.60
70706;DHT22;59320;52.316;10.870;2023-07-13T10:06:36;23.90;68.70
70706;DHT22;59320;52.316;10.870;2023-07-13T10:09:07;23.90;68.40
70706;DHT22;59320;52.316;10.870;2023-07-13T10:11:36;24.00;67.40
70706;DHT22;59320;52.316;10.870;2023-07-13T10:14:13;24.00;67.10
70706;DHT22;59320;52.316;10.870;2023-07-13T10:16:42;24.20;67.30
70706;DHT22;59320;52.316;10.870;2023-07-13T10:19:15;24.40;68.00
70706;DHT22;59320;52.316;10.870;2023-07-13T10:21:50;24.50;66.70
70706;DHT22;59320;52.316;10.870;2023-07-13T10:24:20;24.60;66.10
70706;DHT22;59320;52.316;10.870;2023-07-13T10:26:52;24.70;64.70
70706;DHT22;59320;52.316;10.870;2023-07-13T10:29:23;24.80;65.80
70706;DHT22;59320;52.316;10.870;2023-07-13T10:31:52;24.90;65.50
70706;DHT22;59320;52.316;10.870;2023-07-13T10:34:21;25.00;65.10
70706;DHT22;59320;52.316;10.870;2023-07-13T10:36:51;25.00;64.90
70706;DHT22;59320;52.316;10.870;2023-07-13T10:39:19;25.00;64.40
70706;DHT22;59320;52.316;10.870;2023-07-13T10:41:51;24.90;63.70
70706;DHT22;59320;52.316;10.870;2023-07-13T10:44:24;24.90;64.40
70706;DHT22;59320;52.316;10.870;2023-07-13T10:46:57;24.90;65.00
70706;DHT22;59320;52.316;10.870;2023-07-13T10:49:27;25.00;64.20
70706;DHT22;59320;52.316;10.870;2023-07-13T10:51:55;24.80;64.00
70706;DHT22;59320;52.316;10.870;2023-07-13T10:54:27;24.70;65.00
70706;DHT22;59320;52.316;10.870;2023-07-13T10:57:10;24.50;64.10
70706;DHT22;59320;52.316;10.870;2023-07-13T10:59:42;24.50;65.00
70706;DHT22;59320;52.316;10.870;2023-07-13T11:02:16;24.60;66.00
70706;DHT22;59320;52.316;10.870;2023-07-13T11:04:49;24.70;65.40
70706;DHT22;59320;52.316;10.870;2023-07-13T11:07:21;24.90;64.30
70706;DHT22;59320;52.316;10.870;2023-07-13T11:09:53;25.30;64.70
70706;DHT22;59320;52.316;10.870;2023-07-13T11:12:29;25.60;63.10
70706;DHT22;59320;52.316;10.870;2023-07-13T11:15:28;25.80;63.80
70706;DHT22;59320;52.316;10.870;2023-07-13T11:17:56;26.10;60.90
70706;DHT22;59320;52.316;10.870;2023-07-13T11:20:40;25.90;61.10
70706;DHT22;59320;52.316;10.870;2023-07-13T11:23:17;25.70;61.50
70706;DHT22;59320;52.316;10.870;2023-07-13T11:25:45;25.60;61.60
70706;DHT22;59320;52.316;10.870;2023-07-13T11:28:24;25.60;62.90
70706;DHT22;59320;52.316;10.870;2023-07-13T11:31:12;25.80;61.10
70706;DHT22;59320;52.316;10.870;2023-07-13T11:33:55;26.10;61.60
70706;DHT22;59320;52.316;10.870;2023-07-13T11:36:36;26.80;60.50
70706;DHT22;59320;52.316;10.870;2023-07-13T11:39:17;27.20;59.00
70706;DHT22;59320;52.316;10.870;2023-07-13T11:41:50;27.60;59.00
70706;DHT22;59320;52.316;10.870;2023-07-13T11:44:19;27.70;57.00
70706;DHT22;59320;52.316;10.870;2023-07-13T11:46:48;27.40;57.30
70706;DHT22;59320;52.316;10.870;2023-07-13T11:49:18;26.90;57.10
70706;DHT22;59320;52.316;10.870;2023-07-13T11:51:46;26.90;58.80
70706;DHT22;59320;52.316;10.870;2023-07-13T11:54:22;27.00;57.20
70706;DHT22;59320;52.316;10.870;2023-07-13T11:56:50;26.60;57.80
70706;DHT22;59320;52.316;10.870;2023-07-13T11:59:18;26.30;58.10
70706;DHT22;59320;52.316;10.870;2023-07-13T12:01:52;26.70;58.80
70706;DHT22;59320;52.316;10.870;2023-07-13T12:04:23;27.20;57.20
70706;DHT22;59320;52.316;10.870;2023-07-13T12:07:04;27.50;56.00
70706;DHT22;59320;52.316;10.870;2023-07-13T12:09:33;27.70;54.70
70706;DHT22;59320;52.316;10.870;2023-07-13T12:12:02;27.90;56.00
70706;DHT22;59320;52.316;10.870;2023-07-13T12:14:33;27.80;54.90
70706;DHT22;59320;52.316;10.870;2023-07-13T12:17:00;27.70;54.70
70706;DHT22;59320;52.316;10.870;2023-07-13T12:19:28;28.00;54.80
70706;DHT22;59320;52.316;10.870;2023-07-13T12:21:57;28.40;54.10
70706;DHT22;59320;52.316;10.870;2023-07-13T12:24:26;28.30;53.80
70706;DHT22;59320;52.316;10.870;2023-07-13T12:26:58;28.60;53.40
70706;DHT22;59320;52.316;10.870;2023-07-13T12:29:26;28.50;52.90
70706;DHT22;59320;52.316;10.870;2023-07-13T12:31:53;28.70;52.80
70706;DHT22;59320;52.316;10.870;2023-07-13T12:34:23;28.90;52.60
70706;DHT22;59320;52.316;10.870;2023-07-13T12:36:53;29.00;51.80
70706;DHT22;59320;52.316;10.870;2023-07-13T12:39:22;29.20;52.10
70706;DHT22;59320;52.316;10.870;2023-07-13T12:41:52;29.40;51.40
70706;DHT22;59320;52.316;10.870;2023-07-13T12:44:28;29.50;51.20
70706;DHT22;59320;52.316;10.870;2023-07-13T12:46:58;29.30;49.30
70706;DHT22;59320;52.316;10.870;2023-07-13T12:49:29;29.00;49.50
70706;DHT22;59320;52.316;10.870;2023-07-13T12:52:00;28.90;50.20
70706;DHT22;59320;52.316;10.870;2023-07-13T12:54:28;29.20;50.40
70706;DHT22;59320;52.316;10.870;2023-07-13T12:56:58;29.60;50.70
70706;DHT22;59320;52.316;10.870;2023-07-13T12:59:31;29.80;49.20
70706;DHT22;59320;52.316;10.870;2023-07-13T13:02:02;29.20;47.50
70706;DHT22;59320;52.316;10.870;2023-07-13T13:04:30;28.80;49.60
70706;DHT22;59320;52.316;10.870;2023-07-13T13:07:01;29.10;50.20
70706;DHT22;59320;52.316;10.870;2023-07-13T13:09:28;29.30;48.50
70706;DHT22;59320;52.316;10.870;2023-07-13T13:11:58;29.50;49.30
70706;DHT22;59320;52.316;10.870;2023-07-13T13:14:25;29.80;48.10
70706;DHT22;59320;52.316;10.870;2023-07-13T13:16:52;29.70;47.70
70706;DHT22;59320;52.316;10.870;2023-07-13T13:19:22;29.70;48.10
70706;DHT22;59320;52.316;10.870;2023-07-13T13:21:51;29.80;48.70
70706;DHT22;59320;52.316;10.870;2023-07-13T13:24:20;29.60;46.90
70706;DHT22;59320;52.316;10.870;2023-07-13T13:26:47;29.60;48.60
70706;DHT22;59320;52.316;10.870;2023-07-13T13:29:20;29.70;47.90
70706;DHT22;59320;52.316;10.870;2023-07-13T13:31:47;29.50;46.40
70706;DHT22;59320;52.316;10.870;2023-07-13T13:34:16;29.30;46.10
70706;DHT22;59320;52.316;10.870;2023-07-13T13:36:44;28.80;46.20
70706;DHT22;59320;52.316;10.870;2023-07-13T13:39:19;28.30;46.30
70706;DHT22;59320;52.316;10.870;2023-07-13T13:41:47;27.80;47.50
70706;DHT22;59320;52.316;10.870;2023-07-13T13:44:17;27.50;47.60
70706;DHT22;59320;52.316;10.870;2023-07-13T13:46:46;27.70;48.20
70706;DHT22;59320;52.316;10.870;2023-07-13T13:49:16;27.80;49.00
70706;DHT22;59320;52.316;10.870;2023-07-13T13:51:44;28.10;48.70
70706;DHT22;59320;52.316;10.870;2023-07-13T13:54:12;28.20;49.00
70706;DHT22;59320;52.316;10.870;2023-07-13T13:56:42;28.40;49.00
70706;DHT22;59320;52.316;10.870;2023-07-13T13:59:09;28.50;47.90
70706;DHT22;59320;52.316;10.870;2023-07-13T14:01:38;28.20;48.00
70706;DHT22;59320;52.316;10.870;2023-07-13T14:04:06;28.20;48.50
70706;DHT22;59320;52.316;10.870;2023-07-13T14:06:34;28.50;48.80
70706;DHT22;59320;52.316;10.870;2023-07-13T14:09:01;28.80;48.20
70706;DHT22;59320;52.316;10.870;2023-07-13T14:11:31;28.70;47.10
70706;DHT22;59320;52.316;10.870;2023-07-13T14:14:00;28.50;46.90
70706;DHT22;59320;52.316;10.870;2023-07-13T14:16:30;28.40;47.50
70706;DHT22;59320;52.316;10.870;2023-07-13T14:19:00;28.60;48.10
70706;DHT22;59320;52.316;10.870;2023-07-13T14:21:28;28.60;48.00
70706;DHT22;59320;52.316;10.870;2023-07-13T14:23:56;28.40;48.00
70706;DHT22;59320;52.316;10.870;2023-07-13T14:26:25;28.20;48.40
70706;DHT22;59320;52.316;10.870;2023-07-13T14:28:55;27.90;48.80
70706;DHT22;59320;52.316;10.870;2023-07-13T14:31:25;27.70;49.40
70706;DHT22;59320;52.316;10.870;2023-07-13T14:33:54;27.50;49.30
70706;DHT22;59320;52.316;10.870;2023-07-13T14:36:28;27.30;49.70
70706;DHT22;59320;52.316;10.870;2023-07-13T14:38:56;27.00;50.40
70706;DHT22;59320;52.316;10.870;2023-07-13T14:41:24;26.60;52.40
70706;DHT22;59320;52.316;10.870;2023-07-13T14:43:51;25.00;63.00
70706;DHT22;59320;52.316;10.870;2023-07-13T14:46:28;23.30;69.20
70706;DHT22;59320;52.316;10.870;2023-07-13T14:49:01;22.20;74.70
70706;DHT22;59320;52.316;10.870;2023-07-13T14:51:31;21.20;82.30
70706;DHT22;59320;52.316;10.870;2023-07-13T14:54:02;20.70;83.80
70706;DHT22;59320;52.316;10.870;2023-07-13T14:56:29;20.30;88.50
70706;DHT22;59320;52.316;10.870;2023-07-13T14:58:56;20.10;90.20
70706;DHT22;59320;52.316;10.870;2023-07-13T15:01:23;19.80;90.80
70706;DHT22;59320;52.316;10.870;2023-07-13T15:03:52;19.60;92.30
70706;DHT22;59320;52.316;10.870;2023-07-13T15:06:19;19.40;92.30
70706;DHT22;59320;52.316;10.870;2023-07-13T15:08:48;19.40;92.80
70706;DHT22;59320;52.316;10.870;2023-07-13T15:11:15;19.60;92.90
70706;DHT22;59320;52.316;10.870;2023-07-13T15:13:43;19.70;92.90
70706;DHT22;59320;52.316;10.870;2023-07-13T15:16:15;19.90;92.60
70706;DHT22;59320;52.316;10.870;2023-07-13T15:18:44;19.90;93.60
70706;DHT22;59320;52.316;10.870;2023-07-13T15:21:18;20.10;93.30
70706;DHT22;59320;52.316;10.870;2023-07-13T15:23:47;20.30;93.30
70706;DHT22;59320;52.316;10.870;2023-07-13T15:26:15;20.60;92.20
70706;DHT22;59320;52.316;10.870;2023-07-13T15:28:43;20.90;91.90
70706;DHT22;59320;52.316;10.870;2023-07-13T15:31:19;21.20;92.20
70706;DHT22;59320;52.316;10.870;2023-07-13T15:33:48;21.00;91.40
70706;DHT22;59320;52.316;10.870;2023-07-13T15:36:16;20.70;92.00